createdAt,value
2022-09-28T00:02:28.867Z,12.10
2022-09-28T00:04:59.257Z,12.20
2022-09-28T00:07:29.911Z,12.20
2022-09-28T00:10:00.209Z,12.20
2022-09-28T00:12:33.910Z,12.10
2022-09-28T00:15:04.179Z,12.10
2022-09-28T00:17:34.410Z,12.20
2022-09-28T00:20:06.147Z,12.10
2022-09-28T00:22:36.473Z,12.20
2022-09-28T00:25:07.527Z,12.20
2022-09-28T00:27:40.481Z,12.00
2022-09-28T00:30:12.983Z,12.10
2022-09-28T00:32:43.183Z,12.00
2022-09-28T00:35:13.671Z,12.10
2022-09-28T00:37:43.980Z,12.10
2022-09-28T00:40:14.419Z,12.10
2022-09-28T00:42:47.382Z,12.20
2022-09-28T00:45:18.741Z,12.20
2022-09-28T00:47:52.267Z,12.20
2022-09-28T00:50:28.276Z,12.20
2022-09-28T00:53:03.545Z,12.20
2022-09-28T00:55:39.803Z,12.20
2022-09-28T00:58:15.891Z,12.20
2022-09-28T01:00:46.479Z,12.20
2022-09-28T01:03:17.162Z,12.20
2022-09-28T01:05:49.936Z,12.20
2022-09-28T01:08:23.989Z,12.20
2022-09-28T01:10:54.698Z,12.20
2022-09-28T01:13:28.781Z,12.20
2022-09-28T01:16:04.029Z,12.20
2022-09-28T01:18:43.748Z,12.10
2022-09-28T01:21:19.819Z,12.10
2022-09-28T01:24:17.748Z,12.10
2022-09-28T01:27:07.762Z,12.00
2022-09-28T01:29:46.925Z,12.20
2022-09-28T01:32:38.158Z,12.00
2022-09-28T01:35:12.854Z,12.00
2022-09-28T01:37:52.111Z,12.00
2022-09-28T01:40:24.765Z,12.00
2022-09-28T01:43:02.810Z,12.00
2022-09-28T01:45:37.722Z,12.10
2022-09-28T01:48:10.766Z,12.00
2022-09-28T01:50:44.585Z,12.00
2022-09-28T01:53:20.453Z,12.00
2022-09-28T01:55:55.600Z,12.00
2022-09-28T01:58:31.985Z,12.00
2022-09-28T02:01:07.765Z,12.10
2022-09-28T02:03:44.831Z,11.90
2022-09-28T02:06:19.496Z,12.00
2022-09-28T02:08:54.146Z,11.90
2022-09-28T02:11:31.073Z,11.90
2022-09-28T02:14:07.959Z,12.00
2022-09-28T02:16:42.484Z,11.90
2022-09-28T02:19:16.647Z,11.90
2022-09-28T02:21:51.832Z,11.80
2022-09-28T02:24:26.491Z,11.90
2022-09-28T02:27:00.435Z,11.80
2022-09-28T02:29:38.269Z,11.90
2022-09-28T02:32:08.840Z,11.80
2022-09-28T02:34:39.261Z,11.80
2022-09-28T02:37:09.556Z,11.80
2022-09-28T02:39:40.495Z,11.80
2022-09-28T02:42:20.255Z,11.80
2022-09-28T02:45:07.121Z,11.80
2022-09-28T02:47:59.208Z,11.80
2022-09-28T02:50:42.601Z,11.80
2022-09-28T02:53:35.446Z,11.70
2022-09-28T02:56:20.440Z,11.70
2022-09-28T02:59:00.952Z,11.80
2022-09-28T03:01:43.562Z,11.70
2022-09-28T03:04:21.153Z,11.70
2022-09-28T03:06:58.804Z,11.70
2022-09-28T03:09:37.142Z,11.60
2022-09-28T03:12:12.941Z,11.70
2022-09-28T03:14:44.105Z,11.60
2022-09-28T03:17:17.461Z,11.60
2022-09-28T03:19:48.025Z,11.60
2022-09-28T03:22:18.294Z,11.70
2022-09-28T03:24:48.495Z,11.70
2022-09-28T03:27:19.081Z,11.70
2022-09-28T03:29:50.097Z,11.70
2022-09-28T03:32:23.226Z,11.60
2022-09-28T03:34:53.543Z,11.70
2022-09-28T03:37:23.848Z,11.60
2022-09-28T03:39:54.074Z,11.60
2022-09-28T03:42:24.461Z,11.60
2022-09-28T03:44:55.500Z,11.60
2022-09-28T03:47:28.430Z,11.70
2022-09-28T03:50:01.033Z,11.70
2022-09-28T03:52:31.924Z,11.60
2022-09-28T03:55:02.133Z,11.60
2022-09-28T03:57:32.473Z,11.60
2022-09-28T04:00:02.819Z,11.60
2022-09-28T04:02:46.400Z,11.60
2022-09-28T04:05:16.985Z,11.60
2022-09-28T04:07:47.316Z,11.50
2022-09-28T04:10:18.182Z,11.50
2022-09-28T04:12:49.915Z,11.50
2022-09-28T04:15:20.524Z,11.50
2022-09-28T04:17:53.475Z,11.60
2022-09-28T04:21:06.856Z,11.50
2022-09-28T04:23:43.078Z,11.50
2022-09-28T04:26:19.292Z,11.50
2022-09-28T04:29:06.328Z,11.50
2022-09-28T04:31:41.841Z,11.40
2022-09-28T04:34:17.531Z,11.50
2022-09-28T04:36:48.732Z,11.50
2022-09-28T04:39:20.412Z,11.50
2022-09-28T04:41:54.179Z,11.50
2022-09-28T04:44:24.472Z,11.40
2022-09-28T04:47:05.168Z,11.40
2022-09-28T04:49:38.571Z,11.40
2022-09-28T04:52:18.225Z,11.40
2022-09-28T04:54:51.443Z,11.40
2022-09-28T04:57:22.098Z,11.30
2022-09-28T04:59:52.367Z,11.30
2022-09-28T05:02:22.614Z,11.30
2022-09-28T05:05:14.428Z,11.40
2022-09-28T05:08:03.195Z,11.20
2022-09-28T05:10:33.529Z,11.20
2022-09-28T05:13:05.035Z,11.20
2022-09-28T05:15:39.396Z,11.20
2022-09-28T05:18:10.478Z,11.30
2022-09-28T05:20:51.720Z,11.20
2022-09-28T05:23:22.386Z,11.20
2022-09-28T05:25:52.690Z,11.10
2022-09-28T05:28:31.930Z,11.10
2022-09-28T05:31:22.194Z,11.10
2022-09-28T05:34:15.052Z,11.10
2022-09-28T05:36:48.544Z,11.10
2022-09-28T05:39:20.841Z,11.10
2022-09-28T05:41:51.151Z,11.10
2022-09-28T05:44:21.454Z,11.00
2022-09-28T05:46:52.719Z,11.00
2022-09-28T05:49:23.042Z,11.00
2022-09-28T05:51:55.913Z,11.00
2022-09-28T05:54:26.230Z,11.00
2022-09-28T05:56:56.515Z,10.90
2022-09-28T05:59:26.901Z,11.00
2022-09-28T06:01:57.311Z,10.90
2022-09-28T06:04:27.582Z,10.90
2022-09-28T06:07:01.490Z,10.90
2022-09-28T06:09:31.767Z,10.90
2022-09-28T06:12:05.188Z,10.90
2022-09-28T06:14:42.785Z,10.90
2022-09-28T06:17:14.483Z,11.00
2022-09-28T06:19:47.871Z,10.90
2022-09-28T06:22:47.136Z,10.90
2022-09-28T06:25:17.593Z,11.00
2022-09-28T06:27:56.211Z,10.90
2022-09-28T06:30:28.882Z,10.90
2022-09-28T06:33:00.969Z,10.90
2022-09-28T06:35:33.349Z,10.80
2022-09-28T06:38:06.636Z,10.90
2022-09-28T06:40:37.735Z,11.00
2022-09-28T06:43:10.558Z,10.80
2022-09-28T06:45:59.248Z,11.00
2022-09-28T06:48:50.232Z,10.90
2022-09-28T06:51:39.474Z,10.90
2022-09-28T06:54:26.076Z,11.00
2022-09-28T06:57:11.898Z,11.00
2022-09-28T06:59:42.188Z,10.90
2022-09-28T07:02:14.713Z,11.00
2022-09-28T07:05:16.564Z,11.00
2022-09-28T07:08:06.760Z,11.00
2022-09-28T07:10:53.241Z,11.00
2022-09-28T07:16:34.463Z,11.10
2022-09-28T07:19:17.385Z,11.10
2022-09-28T07:21:57.012Z,11.20
2022-09-28T07:24:32.880Z,11.20
2022-09-28T07:27:28.766Z,11.30
2022-09-28T07:30:17.309Z,11.30
2022-09-28T07:33:06.296Z,11.30
2022-09-28T07:35:56.878Z,11.40
2022-09-28T07:38:32.103Z,11.40
2022-09-28T07:41:11.964Z,11.40
2022-09-28T07:43:52.123Z,11.40
2022-09-28T07:46:23.221Z,11.40
2022-09-28T07:49:08.395Z,11.40
2022-09-28T07:52:11.300Z,11.40
2022-09-28T07:55:06.114Z,11.50
2022-09-28T07:58:05.516Z,11.50
2022-09-28T08:01:15.096Z,11.50
2022-09-28T08:03:48.201Z,11.50
2022-09-28T08:06:20.069Z,11.60
2022-09-28T08:08:50.456Z,11.50
2022-09-28T08:11:23.697Z,11.60
2022-09-28T08:14:14.288Z,11.70
2022-09-28T08:17:00.236Z,11.70
2022-09-28T08:20:09.378Z,11.70
2022-09-28T08:22:43.132Z,11.80
2022-09-28T08:25:14.820Z,11.80
2022-09-28T08:27:45.297Z,11.80
2022-09-28T08:30:15.846Z,11.90
2022-09-28T08:33:07.811Z,11.90
2022-09-28T08:35:48.467Z,11.90
2022-09-28T08:38:39.079Z,11.90
2022-09-28T08:41:39.215Z,11.90
2022-09-28T08:44:29.783Z,12.00
2022-09-28T08:47:39.554Z,12.00
2022-09-28T08:50:35.012Z,12.10
2022-09-28T08:53:35.837Z,12.10
2022-09-28T08:56:30.009Z,12.10
2022-09-28T08:59:04.359Z,12.20
2022-09-28T09:01:40.973Z,12.30
2022-09-28T09:04:16.671Z,12.30
2022-09-28T09:07:22.690Z,12.20
2022-09-28T09:10:12.976Z,12.40
2022-09-28T09:12:54.974Z,12.40
2022-09-28T09:15:39.379Z,12.50
2022-09-28T09:18:29.604Z,12.50
2022-09-28T09:21:43.626Z,12.60
2022-09-28T09:24:30.715Z,12.60
2022-09-28T09:27:09.365Z,12.70
2022-09-28T09:29:58.309Z,12.70
2022-09-28T09:32:34.443Z,12.70
2022-09-28T09:35:46.194Z,12.80
2022-09-28T09:38:59.841Z,12.90
2022-09-28T09:42:07.058Z,13.10
2022-09-28T09:45:26.316Z,13.10
2022-09-28T09:48:14.308Z,13.10
2022-09-28T09:50:51.966Z,13.20
2022-09-28T09:53:28.373Z,13.20
2022-09-28T09:56:03.748Z,13.40
2022-09-28T09:58:48.202Z,13.40
2022-09-28T10:01:26.242Z,13.60
2022-09-28T10:04:22.285Z,13.50
2022-09-28T10:06:59.392Z,13.50
2022-09-28T10:09:35.834Z,13.30
2022-09-28T10:12:25.722Z,13.50
2022-09-28T10:14:58.770Z,13.60
2022-09-28T10:17:31.458Z,13.60
2022-09-28T10:20:37.929Z,13.70
2022-09-28T10:23:29.955Z,13.60
2022-09-28T10:26:06.121Z,13.80
2022-09-28T10:28:42.592Z,13.90
2022-09-28T10:31:41.803Z,13.80
2022-09-28T10:34:31.003Z,13.80
2022-09-28T10:37:12.704Z,13.80
2022-09-28T10:40:32.223Z,13.90
2022-09-28T10:43:07.933Z,14.00
2022-09-28T10:45:41.597Z,13.90
2022-09-28T10:48:22.783Z,14.00
2022-09-28T10:51:05.623Z,13.90
2022-09-28T10:53:38.331Z,13.90
2022-09-28T10:56:40.314Z,13.90
2022-09-28T10:59:41.489Z,13.80
2022-09-28T11:02:29.548Z,13.90
2022-09-28T11:05:22.208Z,13.80
2022-09-28T11:07:55.652Z,13.90
2022-09-28T11:10:33.035Z,14.10
2022-09-28T11:13:30.693Z,14.20
2022-09-28T11:16:09.043Z,14.00
2022-09-28T11:18:41.480Z,13.80
2022-09-28T11:21:19.329Z,13.70
2022-09-28T11:24:22.448Z,13.60
2022-09-28T11:26:56.603Z,13.50
2022-09-28T11:29:40.170Z,13.60
2022-09-28T11:32:32.940Z,13.50
2022-09-28T11:35:50.619Z,13.40
2022-09-28T11:38:42.571Z,13.40
2022-09-28T11:41:51.247Z,13.40
2022-09-28T11:44:41.565Z,13.40
2022-09-28T11:47:43.641Z,13.50
2022-09-28T11:50:26.541Z,13.50
2022-09-28T11:53:03.285Z,13.60
2022-09-28T11:55:43.458Z,13.60
2022-09-28T11:58:20.938Z,13.70
2022-09-28T12:00:55.812Z,13.80
2022-09-28T12:03:42.744Z,13.90
2022-09-28T12:06:19.185Z,13.90
2022-09-28T12:08:54.335Z,14.00
2022-09-28T12:11:50.465Z,14.00
2022-09-28T12:14:31.463Z,14.00
2022-09-28T12:17:08.667Z,14.10
2022-09-28T12:19:45.416Z,14.20
2022-09-28T12:22:21.356Z,14.20
2022-09-28T12:24:55.672Z,14.40
2022-09-28T12:27:36.598Z,14.70
2022-09-28T12:30:14.855Z,15.00
2022-09-28T12:32:49.425Z,15.10
2022-09-28T12:35:27.534Z,14.90
2022-09-28T12:38:23.341Z,14.90
2022-09-28T12:40:59.652Z,15.00
2022-09-28T12:44:06.363Z,15.10
2022-09-28T12:46:58.232Z,14.90
2022-09-28T12:55:56.146Z,14.50
2022-09-28T12:58:45.179Z,14.40
2022-09-28T13:01:32.022Z,14.40
2022-09-28T13:04:47.411Z,14.40
2022-09-28T13:07:26.299Z,14.40
2022-09-28T13:10:11.276Z,14.30
2022-09-28T13:12:53.974Z,14.40
2022-09-28T13:15:39.379Z,14.40
2022-09-28T13:18:27.410Z,14.40
2022-09-28T13:21:07.124Z,14.40
2022-09-28T13:23:42.310Z,14.50
2022-09-28T13:26:24.967Z,14.60
2022-09-28T13:29:07.675Z,14.60
2022-09-28T13:31:41.842Z,14.50
2022-09-28T13:34:20.780Z,14.60
2022-09-28T13:37:12.806Z,14.70
2022-09-28T13:39:56.601Z,14.50
2022-09-28T13:43:08.596Z,14.80
2022-09-28T13:45:56.999Z,15.10
2022-09-28T13:48:36.450Z,15.20
2022-09-28T13:51:29.287Z,15.10
2022-09-28T13:54:29.776Z,15.20
2022-09-28T13:57:08.098Z,15.10
2022-09-28T13:59:53.901Z,15.40
2022-09-28T14:02:33.421Z,15.50
2022-09-28T14:05:05.991Z,15.60
2022-09-28T14:08:21.660Z,15.60
2022-09-28T14:10:54.552Z,15.30
2022-09-28T14:14:01.109Z,15.20
2022-09-28T14:16:34.094Z,15.00
2022-09-28T14:19:09.753Z,15.00
2022-09-28T14:21:55.564Z,15.00
2022-09-28T14:24:45.193Z,15.00
2022-09-28T14:27:41.653Z,15.00
2022-09-28T14:30:25.893Z,15.00
2022-09-28T14:32:58.854Z,14.90
2022-09-28T14:35:35.320Z,14.90
2022-09-28T14:38:21.893Z,15.00
2022-09-28T14:41:14.461Z,14.90
2022-09-28T14:44:01.023Z,14.90
2022-09-28T14:46:43.855Z,14.90
2022-09-28T14:49:44.170Z,14.70
2022-09-28T14:52:20.241Z,14.80
2022-09-28T14:54:56.634Z,14.80
2022-09-28T14:57:34.097Z,14.80
2022-09-28T15:00:17.879Z,14.80
2022-09-28T15:02:52.867Z,14.90
2022-09-28T15:05:27.487Z,15.00
2022-09-28T15:07:58.468Z,15.00
2022-09-28T15:10:36.826Z,15.10
2022-09-28T15:13:21.603Z,15.10
2022-09-28T15:15:54.781Z,15.30
2022-09-28T15:18:57.053Z,15.20
2022-09-28T15:21:36.516Z,15.20
2022-09-28T15:24:22.075Z,15.10
2022-09-28T15:26:53.316Z,15.00
2022-09-28T15:29:27.440Z,15.00
2022-09-28T15:31:57.720Z,15.00
2022-09-28T15:34:47.966Z,15.10
2022-09-28T15:37:22.674Z,15.00
2022-09-28T15:39:54.489Z,15.00
2022-09-28T15:42:25.956Z,15.00
2022-09-28T15:45:09.134Z,15.00
2022-09-28T15:47:40.200Z,15.00
2022-09-28T15:50:22.640Z,15.00
2022-09-28T15:52:59.306Z,15.00
2022-09-28T15:55:33.692Z,15.00
2022-09-28T15:58:18.846Z,15.10
2022-09-28T16:00:54.695Z,14.90
2022-09-28T16:03:31.357Z,14.90
2022-09-28T16:06:19.448Z,14.90
2022-09-28T16:08:49.954Z,14.90
2022-09-28T16:11:24.300Z,14.90
2022-09-28T16:14:01.858Z,14.90
2022-09-28T16:16:41.133Z,14.90
2022-09-28T16:19:26.327Z,14.80
2022-09-28T16:21:59.164Z,14.80
2022-09-28T16:24:32.509Z,14.80
2022-09-28T16:27:05.293Z,14.90
2022-09-28T16:29:40.976Z,14.80
2022-09-28T16:32:41.958Z,14.80
2022-09-28T16:35:21.530Z,14.80
2022-09-28T16:37:58.675Z,14.80
2022-09-28T16:40:29.691Z,14.90
2022-09-28T16:43:03.332Z,14.90
2022-09-28T16:45:35.328Z,14.90
2022-09-28T16:48:08.300Z,14.90
2022-09-28T16:50:38.551Z,14.80
2022-09-28T16:53:29.281Z,14.90
2022-09-28T16:56:00.914Z,14.90
2022-09-28T16:58:32.227Z,14.90
2022-09-28T17:01:03.402Z,14.80
2022-09-28T17:03:36.367Z,14.70
2022-09-28T17:06:07.991Z,14.70
2022-09-28T17:08:38.350Z,14.60
2022-09-28T17:11:15.857Z,14.50
2022-09-28T17:13:50.076Z,14.40
2022-09-28T17:16:37.282Z,14.40
2022-09-28T17:19:24.050Z,14.30
2022-09-28T17:21:55.430Z,14.30
2022-09-28T17:24:25.865Z,14.20
2022-09-28T17:26:56.356Z,14.10
2022-09-28T17:29:27.919Z,14.10
2022-09-28T17:31:58.228Z,14.00
2022-09-28T17:34:31.169Z,14.00
2022-09-28T17:37:01.363Z,13.90
2022-09-28T17:39:31.926Z,14.00
2022-09-28T17:42:02.115Z,13.90
2022-09-28T17:44:32.350Z,13.80
2022-09-28T17:47:02.993Z,13.80
2022-09-28T17:49:35.898Z,13.70
2022-09-28T17:52:06.264Z,13.70
2022-09-28T17:54:36.677Z,13.70
2022-09-28T17:57:07.146Z,13.70
2022-09-28T17:59:37.462Z,13.70
2022-09-28T18:02:07.730Z,13.60
2022-09-28T18:04:51.873Z,13.60
2022-09-28T18:07:22.936Z,13.60
2022-09-28T18:09:58.418Z,13.50
2022-09-28T18:12:28.908Z,13.50
2022-09-28T18:14:59.148Z,13.50
2022-09-28T18:17:29.487Z,13.50
2022-09-28T18:20:02.501Z,13.40
2022-09-28T18:22:32.803Z,13.40
2022-09-28T18:25:03.223Z,13.40
2022-09-28T18:27:34.610Z,13.40
2022-09-28T18:30:05.065Z,13.40
2022-09-28T18:32:39.832Z,13.40
2022-09-28T18:35:13.975Z,13.40
2022-09-28T18:37:44.483Z,13.40
2022-09-28T18:40:15.736Z,13.40
2022-09-28T18:42:46.106Z,13.40
2022-09-28T18:45:17.991Z,13.40
2022-09-28T18:47:48.826Z,13.40
2022-09-28T18:50:21.921Z,13.40
2022-09-28T18:52:52.245Z,13.40
2022-09-28T18:55:22.716Z,13.40
2022-09-28T18:57:53.554Z,13.30
2022-09-28T19:00:24.088Z,13.30
2022-09-28T19:02:54.858Z,13.30
2022-09-28T19:05:28.934Z,13.40
2022-09-28T19:07:59.785Z,13.30
2022-09-28T19:10:32.189Z,13.30
2022-09-28T19:13:02.442Z,13.30
2022-09-28T19:15:33.146Z,13.30
2022-09-28T19:18:04.087Z,13.30
2022-09-28T19:20:38.490Z,13.30
2022-09-28T19:23:08.712Z,13.20
2022-09-28T19:25:40.495Z,13.20
2022-09-28T19:28:10.864Z,13.20
2022-09-28T19:30:42.342Z,13.20
2022-09-28T19:33:12.647Z,13.20
2022-09-28T19:35:45.531Z,13.20
2022-09-28T19:38:15.746Z,13.20
2022-09-28T19:40:46.109Z,13.10
2022-09-28T19:43:16.695Z,13.10
2022-09-28T19:45:47.133Z,13.10
2022-09-28T19:48:19.587Z,13.10
2022-09-28T19:51:00.230Z,13.00
2022-09-28T19:53:32.558Z,13.00
2022-09-28T19:56:05.773Z,13.00
2022-09-28T19:58:37.852Z,13.00
2022-09-28T20:01:09.418Z,13.00
2022-09-28T20:03:39.574Z,13.00
2022-09-28T20:06:17.085Z,12.90
2022-09-28T20:08:47.679Z,12.90
2022-09-28T20:11:17.905Z,12.90
2022-09-28T20:13:48.871Z,12.90
2022-09-28T20:16:24.531Z,12.90
2022-09-28T20:19:00.712Z,12.80
2022-09-28T20:21:33.862Z,12.90
2022-09-28T20:24:05.184Z,12.80
2022-09-28T20:26:38.011Z,12.80
2022-09-28T20:29:08.724Z,12.70
2022-09-28T20:31:39.482Z,12.80
2022-09-28T20:34:09.870Z,12.70
2022-09-28T20:36:44.828Z,12.70
2022-09-28T20:39:15.840Z,12.60
2022-09-28T20:41:47.328Z,12.60
2022-09-28T20:44:17.655Z,12.60
2022-09-28T20:46:48.015Z,12.60
2022-09-28T20:49:18.386Z,12.50
2022-09-28T20:51:51.208Z,12.50
2022-09-28T20:54:21.542Z,12.50
2022-09-28T20:56:51.781Z,12.50
2022-09-28T20:59:26.020Z,12.50
2022-09-28T21:01:56.334Z,12.40
2022-09-28T21:04:27.167Z,12.40
2022-09-28T21:07:00.075Z,12.30
2022-09-28T21:09:32.161Z,12.40
2022-09-28T21:12:03.145Z,12.30
2022-09-28T21:14:33.613Z,12.40
2022-09-28T21:17:03.902Z,12.40
2022-09-28T21:19:34.082Z,12.30
2022-09-28T21:22:07.080Z,12.30
2022-09-28T21:24:37.301Z,12.30
2022-09-28T21:27:07.704Z,12.30
2022-09-28T21:29:38.035Z,12.20
2022-09-28T21:32:08.539Z,12.40
2022-09-28T21:34:38.836Z,12.20
2022-09-28T21:37:11.752Z,12.30
2022-09-28T21:39:42.019Z,12.20
2022-09-28T21:42:12.302Z,12.20
2022-09-28T21:44:42.539Z,12.20
2022-09-28T21:47:12.789Z,12.20
2022-09-28T21:49:43.081Z,12.20
2022-09-28T21:52:16.038Z,12.10
2022-09-28T21:54:46.256Z,12.10
2022-09-28T21:57:19.043Z,12.10
2022-09-28T21:59:50.095Z,12.10
2022-09-28T22:02:21.749Z,12.00
2022-09-28T22:04:52.019Z,12.00
2022-09-28T22:07:24.900Z,12.00
2022-09-28T22:09:55.232Z,12.00
2022-09-28T22:12:25.454Z,12.00
2022-09-28T22:14:55.702Z,12.00
2022-09-28T22:17:26.081Z,12.00
2022-09-28T22:19:56.293Z,11.90
2022-09-28T22:22:29.402Z,11.80
2022-09-28T22:24:59.675Z,11.80
2022-09-28T22:27:32.578Z,11.80
2022-09-28T22:30:02.975Z,11.80
2022-09-28T22:32:33.404Z,11.80
2022-09-28T22:35:03.710Z,11.80
2022-09-28T22:37:36.589Z,11.70
2022-09-28T22:40:07.518Z,11.80
2022-09-28T22:42:38.405Z,11.70
2022-09-28T22:45:10.067Z,11.70
2022-09-28T22:47:40.413Z,11.70
2022-09-28T22:50:11.535Z,11.60
2022-09-28T22:52:44.734Z,11.60
2022-09-28T22:55:15.053Z,11.60
2022-09-28T22:57:45.490Z,11.70
2022-09-28T23:00:16.982Z,11.60
2022-09-28T23:02:47.348Z,11.60
2022-09-28T23:05:18.321Z,11.60
2022-09-28T23:07:51.205Z,11.50
2022-09-28T23:10:21.594Z,11.60
2022-09-28T23:12:51.938Z,11.40
2022-09-28T23:15:22.508Z,11.50
2022-09-28T23:17:54.736Z,11.50
2022-09-28T23:20:25.688Z,11.40
2022-09-28T23:22:58.550Z,11.50
2022-09-28T23:25:28.930Z,11.40
2022-09-28T23:27:59.342Z,11.40
2022-09-28T23:30:30.301Z,11.30
2022-09-28T23:33:00.586Z,11.40
2022-09-28T23:35:30.930Z,11.40
2022-09-28T23:38:04.080Z,11.30
2022-09-28T23:40:34.394Z,11.30
2022-09-28T23:43:04.664Z,11.20
2022-09-28T23:45:35.240Z,11.20
2022-09-28T23:48:05.739Z,11.20
2022-09-28T23:50:36.077Z,11.20
2022-09-28T23:53:08.916Z,11.20
2022-09-28T23:55:39.272Z,11.20
2022-09-28T23:58:09.645Z,11.10
